sensor_id;sensor_type;location;lat;lon;timestamp;P1;durP1;ratioP1;P2;durP2;ratioP2
52618;SDS011;38513;53.234;6.568;2023-04-25T00:00:51;25.90;;;5.82;;
52618;SDS011;38513;53.234;6.568;2023-04-25T00:03:17;23.13;;;5.47;;
52618;SDS011;38513;53.234;6.568;2023-04-25T00:05:44;22.60;;;6.00;;
52618;SDS011;38513;53.234;6.568;2023-04-25T00:08:10;24.25;;;5.95;;
52618;SDS011;38513;53.234;6.568;2023-04-25T00:10:37;30.27;;;6.57;;
52618;SDS011;38513;53.234;6.568;2023-04-25T00:13:03;25.58;;;6.07;;
52618;SDS011;38513;53.234;6.568;2023-04-25T00:15:29;26.02;;;6.15;;
52618;SDS011;38513;53.234;6.568;2023-04-25T00:17:56;25.77;;;5.85;;
52618;SDS011;38513;53.234;6.568;2023-04-25T00:20:22;26.55;;;5.72;;
52618;SDS011;38513;53.234;6.568;2023-04-25T00:22:51;25.60;;;6.13;;
52618;SDS011;38513;53.234;6.568;2023-04-25T00:25:20;26.88;;;5.72;;
52618;SDS011;38513;53.234;6.568;2023-04-25T00:27:47;18.40;;;4.45;;
52618;SDS011;38513;53.234;6.568;2023-04-25T00:30:13;14.40;;;4.25;;
52618;SDS011;38513;53.234;6.568;2023-04-25T00:32:39;20.02;;;4.22;;
52618;SDS011;38513;53.234;6.568;2023-04-25T00:35:05;18.67;;;3.90;;
52618;SDS011;38513;53.234;6.568;2023-04-25T00:37:31;16.88;;;3.70;;
52618;SDS011;38513;53.234;6.568;2023-04-25T00:39:58;17.73;;;3.92;;
52618;SDS011;38513;53.234;6.568;2023-04-25T00:42:25;16.58;;;3.70;;
52618;SDS011;38513;53.234;6.568;2023-04-25T00:44:51;19.73;;;4.10;;
52618;SDS011;38513;53.234;6.568;2023-04-25T00:47:18;21.33;;;4.22;;
52618;SDS011;38513;53.234;6.568;2023-04-25T00:49:44;18.92;;;3.80;;
52618;SDS011;38513;53.234;6.568;2023-04-25T00:52:10;19.10;;;4.10;;
52618;SDS011;38513;53.234;6.568;2023-04-25T00:54:36;17.15;;;4.35;;
52618;SDS011;38513;53.234;6.568;2023-04-25T00:57:03;19.13;;;4.43;;
52618;SDS011;38513;53.234;6.568;2023-04-25T00:59:29;17.48;;;4.15;;
52618;SDS011;38513;53.234;6.568;2023-04-25T01:01:56;20.58;;;4.10;;
52618;SDS011;38513;53.234;6.568;2023-04-25T01:04:22;16.63;;;3.63;;
52618;SDS011;38513;53.234;6.568;2023-04-25T01:06:51;18.73;;;3.65;;
52618;SDS011;38513;53.234;6.568;2023-04-25T01:09:18;17.40;;;3.28;;
52618;SDS011;38513;53.234;6.568;2023-04-25T01:11:44;16.60;;;3.70;;
52618;SDS011;38513;53.234;6.568;2023-04-25T01:14:11;15.30;;;3.30;;
52618;SDS011;38513;53.234;6.568;2023-04-25T01:16:37;18.48;;;4.10;;
52618;SDS011;38513;53.234;6.568;2023-04-25T01:19:05;14.32;;;3.15;;
52618;SDS011;38513;53.234;6.568;2023-04-25T01:21:36;15.15;;;3.13;;
52618;SDS011;38513;53.234;6.568;2023-04-25T01:24:02;15.30;;;2.90;;
52618;SDS011;38513;53.234;6.568;2023-04-25T01:26:28;16.63;;;3.35;;
52618;SDS011;38513;53.234;6.568;2023-04-25T01:28:55;18.17;;;3.80;;
52618;SDS011;38513;53.234;6.568;2023-04-25T01:31:21;20.75;;;3.70;;
52618;SDS011;38513;53.234;6.568;2023-04-25T01:33:48;15.85;;;3.22;;
52618;SDS011;38513;53.234;6.568;2023-04-25T01:36:14;14.27;;;3.38;;
52618;SDS011;38513;53.234;6.568;2023-04-25T01:38:40;19.98;;;4.00;;
52618;SDS011;38513;53.234;6.568;2023-04-25T01:41:06;23.50;;;4.30;;
52618;SDS011;38513;53.234;6.568;2023-04-25T01:43:33;16.20;;;3.55;;
52618;SDS011;38513;53.234;6.568;2023-04-25T01:45:59;22.57;;;4.20;;
52618;SDS011;38513;53.234;6.568;2023-04-25T01:48:25;16.50;;;3.80;;
52618;SDS011;38513;53.234;6.568;2023-04-25T01:50:51;21.73;;;3.80;;
52618;SDS011;38513;53.234;6.568;2023-04-25T01:53:18;18.33;;;3.85;;
52618;SDS011;38513;53.234;6.568;2023-04-25T01:55:44;19.63;;;3.72;;
52618;SDS011;38513;53.234;6.568;2023-04-25T01:58:10;18.70;;;3.97;;
52618;SDS011;38513;53.234;6.568;2023-04-25T02:00:38;19.98;;;3.95;;
52618;SDS011;38513;53.234;6.568;2023-04-25T02:03:05;20.73;;;3.75;;
52618;SDS011;38513;53.234;6.568;2023-04-25T02:05:35;20.95;;;4.40;;
52618;SDS011;38513;53.234;6.568;2023-04-25T02:08:02;15.70;;;3.78;;
52618;SDS011;38513;53.234;6.568;2023-04-25T02:10:28;20.98;;;4.28;;
52618;SDS011;38513;53.234;6.568;2023-04-25T02:12:54;18.60;;;4.05;;
52618;SDS011;38513;53.234;6.568;2023-04-25T02:15:21;17.83;;;4.10;;
52618;SDS011;38513;53.234;6.568;2023-04-25T02:17:47;20.10;;;4.03;;
52618;SDS011;38513;53.234;6.568;2023-04-25T02:20:13;19.42;;;4.35;;
52618;SDS011;38513;53.234;6.568;2023-04-25T02:22:41;18.42;;;4.07;;
52618;SDS011;38513;53.234;6.568;2023-04-25T02:25:07;18.23;;;4.03;;
52618;SDS011;38513;53.234;6.568;2023-04-25T02:27:34;19.20;;;4.00;;
52618;SDS011;38513;53.234;6.568;2023-04-25T02:30:00;18.58;;;3.65;;
52618;SDS011;38513;53.234;6.568;2023-04-25T02:32:26;23.05;;;4.40;;
52618;SDS011;38513;53.234;6.568;2023-04-25T02:34:52;21.15;;;3.90;;
52618;SDS011;38513;53.234;6.568;2023-04-25T02:37:26;17.48;;;3.70;;
52618;SDS011;38513;53.234;6.568;2023-04-25T02:39:52;18.30;;;3.58;;
52618;SDS011;38513;53.234;6.568;2023-04-25T02:42:26;18.15;;;3.45;;
52618;SDS011;38513;53.234;6.568;2023-04-25T02:44:52;18.25;;;3.92;;
52618;SDS011;38513;53.234;6.568;2023-04-25T02:47:22;16.90;;;3.67;;
52618;SDS011;38513;53.234;6.568;2023-04-25T02:49:49;15.10;;;3.60;;
52618;SDS011;38513;53.234;6.568;2023-04-25T02:52:15;13.55;;;3.25;;
52618;SDS011;38513;53.234;6.568;2023-04-25T02:54:42;16.27;;;3.42;;
52618;SDS011;38513;53.234;6.568;2023-04-25T02:57:08;15.13;;;3.38;;
52618;SDS011;38513;53.234;6.568;2023-04-25T02:59:34;17.65;;;3.47;;
52618;SDS011;38513;53.234;6.568;2023-04-25T03:02:00;16.45;;;3.35;;
52618;SDS011;38513;53.234;6.568;2023-04-25T03:04:27;14.38;;;2.80;;
52618;SDS011;38513;53.234;6.568;2023-04-25T03:06:55;15.88;;;3.00;;
52618;SDS011;38513;53.234;6.568;2023-04-25T03:09:22;14.10;;;2.90;;
52618;SDS011;38513;53.234;6.568;2023-04-25T03:11:49;16.23;;;3.33;;
52618;SDS011;38513;53.234;6.568;2023-04-25T03:14:15;18.27;;;2.85;;
52618;SDS011;38513;53.234;6.568;2023-04-25T03:16:41;19.85;;;3.15;;
52618;SDS011;38513;53.234;6.568;2023-04-25T03:19:07;14.75;;;3.15;;
52618;SDS011;38513;53.234;6.568;2023-04-25T03:21:34;17.27;;;3.28;;
52618;SDS011;38513;53.234;6.568;2023-04-25T03:24:01;17.48;;;3.30;;
52618;SDS011;38513;53.234;6.568;2023-04-25T03:26:28;15.32;;;3.17;;
52618;SDS011;38513;53.234;6.568;2023-04-25T03:28:54;16.55;;;3.38;;
52618;SDS011;38513;53.234;6.568;2023-04-25T03:31:20;14.43;;;3.03;;
52618;SDS011;38513;53.234;6.568;2023-04-25T03:33:47;18.05;;;3.53;;
52618;SDS011;38513;53.234;6.568;2023-04-25T03:36:13;17.85;;;3.53;;
52618;SDS011;38513;53.234;6.568;2023-04-25T03:38:39;15.32;;;2.90;;
52618;SDS011;38513;53.234;6.568;2023-04-25T03:41:07;15.85;;;3.22;;
52618;SDS011;38513;53.234;6.568;2023-04-25T03:43:33;17.55;;;3.17;;
52618;SDS011;38513;53.234;6.568;2023-04-25T03:45:59;16.95;;;3.47;;
52618;SDS011;38513;53.234;6.568;2023-04-25T03:48:26;18.77;;;3.40;;
52618;SDS011;38513;53.234;6.568;2023-04-25T03:50:52;18.13;;;3.42;;
52618;SDS011;38513;53.234;6.568;2023-04-25T03:53:22;18.02;;;3.47;;
52618;SDS011;38513;53.234;6.568;2023-04-25T03:55:49;14.85;;;2.63;;
52618;SDS011;38513;53.234;6.568;2023-04-25T03:58:15;17.10;;;3.60;;
52618;SDS011;38513;53.234;6.568;2023-04-25T04:00:41;16.90;;;3.30;;
52618;SDS011;38513;53.234;6.568;2023-04-25T04:03:07;16.47;;;3.27;;
52618;SDS011;38513;53.234;6.568;2023-04-25T04:05:34;18.35;;;3.05;;
52618;SDS011;38513;53.234;6.568;2023-04-25T04:08:00;17.48;;;3.80;;
52618;SDS011;38513;53.234;6.568;2023-04-25T04:10:26;15.27;;;2.97;;
52618;SDS011;38513;53.234;6.568;2023-04-25T04:12:52;16.92;;;3.20;;
52618;SDS011;38513;53.234;6.568;2023-04-25T04:15:22;18.83;;;3.85;;
52618;SDS011;38513;53.234;6.568;2023-04-25T04:17:56;19.02;;;3.63;;
52618;SDS011;38513;53.234;6.568;2023-04-25T04:20:22;15.05;;;2.90;;
52618;SDS011;38513;53.234;6.568;2023-04-25T04:22:51;18.73;;;3.50;;
52618;SDS011;38513;53.234;6.568;2023-04-25T04:25:17;17.73;;;3.30;;
52618;SDS011;38513;53.234;6.568;2023-04-25T04:27:43;18.85;;;3.60;;
52618;SDS011;38513;53.234;6.568;2023-04-25T04:30:10;15.18;;;3.65;;
52618;SDS011;38513;53.234;6.568;2023-04-25T04:32:36;15.10;;;3.13;;
52618;SDS011;38513;53.234;6.568;2023-04-25T04:35:02;18.67;;;3.70;;
52618;SDS011;38513;53.234;6.568;2023-04-25T04:37:29;20.27;;;3.75;;
52618;SDS011;38513;53.234;6.568;2023-04-25T04:39:55;19.27;;;3.50;;
52618;SDS011;38513;53.234;6.568;2023-04-25T04:42:21;17.88;;;3.47;;
52618;SDS011;38513;53.234;6.568;2023-04-25T04:44:49;20.92;;;3.22;;
52618;SDS011;38513;53.234;6.568;2023-04-25T04:47:17;17.48;;;3.45;;
52618;SDS011;38513;53.234;6.568;2023-04-25T04:49:45;16.67;;;3.17;;
52618;SDS011;38513;53.234;6.568;2023-04-25T04:52:11;18.38;;;3.45;;
52618;SDS011;38513;53.234;6.568;2023-04-25T04:54:37;18.70;;;3.58;;
52618;SDS011;38513;53.234;6.568;2023-04-25T04:57:03;18.60;;;3.88;;
52618;SDS011;38513;53.234;6.568;2023-04-25T04:59:30;16.65;;;3.25;;
52618;SDS011;38513;53.234;6.568;2023-04-25T05:01:56;14.27;;;2.60;;
52618;SDS011;38513;53.234;6.568;2023-04-25T05:04:22;11.68;;;2.53;;
52618;SDS011;38513;53.234;6.568;2023-04-25T05:06:51;10.63;;;2.53;;
52618;SDS011;38513;53.234;6.568;2023-04-25T05:09:17;14.23;;;2.55;;
52618;SDS011;38513;53.234;6.568;2023-04-25T05:11:44;9.20;;;1.90;;
52618;SDS011;38513;53.234;6.568;2023-04-25T05:14:10;9.23;;;1.90;;
52618;SDS011;38513;53.234;6.568;2023-04-25T05:16:36;9.63;;;1.80;;
52618;SDS011;38513;53.234;6.568;2023-04-25T05:19:03;9.80;;;2.00;;
52618;SDS011;38513;53.234;6.568;2023-04-25T05:21:29;8.80;;;1.88;;
52618;SDS011;38513;53.234;6.568;2023-04-25T05:23:56;9.90;;;2.00;;
52618;SDS011;38513;53.234;6.568;2023-04-25T05:26:22;8.88;;;1.90;;
52618;SDS011;38513;53.234;6.568;2023-04-25T05:28:56;9.20;;;1.65;;
52618;SDS011;38513;53.234;6.568;2023-04-25T05:31:25;8.75;;;1.80;;
52618;SDS011;38513;53.234;6.568;2023-04-25T05:33:51;9.90;;;1.77;;
52618;SDS011;38513;53.234;6.568;2023-04-25T05:36:21;10.43;;;1.98;;
52618;SDS011;38513;53.234;6.568;2023-04-25T05:38:50;10.95;;;1.92;;
52618;SDS011;38513;53.234;6.568;2023-04-25T05:41:16;12.95;;;2.15;;
52618;SDS011;38513;53.234;6.568;2023-04-25T05:43:42;11.32;;;2.15;;
52618;SDS011;38513;53.234;6.568;2023-04-25T05:46:12;9.00;;;2.07;;
52618;SDS011;38513;53.234;6.568;2023-04-25T05:48:38;9.70;;;2.05;;
52618;SDS011;38513;53.234;6.568;2023-04-25T05:51:04;10.32;;;2.33;;
52618;SDS011;38513;53.234;6.568;2023-04-25T05:53:30;10.02;;;2.10;;
52618;SDS011;38513;53.234;6.568;2023-04-25T05:55:56;14.82;;;2.38;;
52618;SDS011;38513;53.234;6.568;2023-04-25T05:58:22;14.02;;;2.67;;
52618;SDS011;38513;53.234;6.568;2023-04-25T06:00:51;11.35;;;2.33;;
52618;SDS011;38513;53.234;6.568;2023-04-25T06:03:20;9.80;;;2.42;;
52618;SDS011;38513;53.234;6.568;2023-04-25T06:05:46;12.07;;;2.03;;
52618;SDS011;38513;53.234;6.568;2023-04-25T06:08:13;11.40;;;2.40;;
52618;SDS011;38513;53.234;6.568;2023-04-25T06:10:39;11.38;;;2.25;;
52618;SDS011;38513;53.234;6.568;2023-04-25T06:13:05;10.43;;;2.00;;
52618;SDS011;38513;53.234;6.568;2023-04-25T06:15:34;8.68;;;1.55;;
52618;SDS011;38513;53.234;6.568;2023-04-25T06:18:01;10.10;;;1.95;;
52618;SDS011;38513;53.234;6.568;2023-04-25T06:20:27;10.80;;;1.90;;
52618;SDS011;38513;53.234;6.568;2023-04-25T06:22:54;10.40;;;2.00;;
52618;SDS011;38513;53.234;6.568;2023-04-25T06:25:20;11.63;;;1.75;;
52618;SDS011;38513;53.234;6.568;2023-04-25T06:27:47;9.27;;;1.63;;
52618;SDS011;38513;53.234;6.568;2023-04-25T06:30:13;10.52;;;1.95;;
52618;SDS011;38513;53.234;6.568;2023-04-25T06:32:40;8.65;;;1.92;;
52618;SDS011;38513;53.234;6.568;2023-04-25T06:35:06;11.00;;;2.20;;
52618;SDS011;38513;53.234;6.568;2023-04-25T06:37:32;11.75;;;2.00;;
52618;SDS011;38513;53.234;6.568;2023-04-25T06:39:58;10.35;;;2.15;;
52618;SDS011;38513;53.234;6.568;2023-04-25T06:42:25;12.70;;;2.20;;
52618;SDS011;38513;53.234;6.568;2023-04-25T06:44:51;10.98;;;2.30;;
52618;SDS011;38513;53.234;6.568;2023-04-25T06:47:17;13.70;;;2.42;;
52618;SDS011;38513;53.234;6.568;2023-04-25T06:49:44;15.93;;;2.78;;
52618;SDS011;38513;53.234;6.568;2023-04-25T06:52:10;14.77;;;2.67;;
52618;SDS011;38513;53.234;6.568;2023-04-25T06:54:36;14.07;;;3.10;;
52618;SDS011;38513;53.234;6.568;2023-04-25T06:57:02;14.77;;;2.40;;
52618;SDS011;38513;53.234;6.568;2023-04-25T06:59:28;12.55;;;2.58;;
52618;SDS011;38513;53.234;6.568;2023-04-25T07:01:54;14.50;;;2.47;;
52618;SDS011;38513;53.234;6.568;2023-04-25T07:04:21;11.30;;;2.38;;
52618;SDS011;38513;53.234;6.568;2023-04-25T07:06:47;13.73;;;2.25;;
52618;SDS011;38513;53.234;6.568;2023-04-25T07:09:14;12.95;;;2.13;;
52618;SDS011;38513;53.234;6.568;2023-04-25T07:11:40;12.33;;;2.37;;
52618;SDS011;38513;53.234;6.568;2023-04-25T07:14:06;10.67;;;1.93;;
52618;SDS011;38513;53.234;6.568;2023-04-25T07:16:33;11.07;;;1.90;;
52618;SDS011;38513;53.234;6.568;2023-04-25T07:18:59;10.68;;;2.25;;
52618;SDS011;38513;53.234;6.568;2023-04-25T07:21:25;9.10;;;1.83;;
52618;SDS011;38513;53.234;6.568;2023-04-25T07:23:51;8.43;;;1.70;;
52618;SDS011;38513;53.234;6.568;2023-04-25T07:26:18;13.20;;;2.00;;
52618;SDS011;38513;53.234;6.568;2023-04-25T07:28:44;9.88;;;1.80;;
52618;SDS011;38513;53.234;6.568;2023-04-25T07:31:10;8.85;;;2.00;;
52618;SDS011;38513;53.234;6.568;2023-04-25T07:33:37;11.65;;;1.80;;
52618;SDS011;38513;53.234;6.568;2023-04-25T07:36:03;11.68;;;2.22;;
52618;SDS011;38513;53.234;6.568;2023-04-25T07:38:30;10.88;;;1.88;;
52618;SDS011;38513;53.234;6.568;2023-04-25T07:40:56;10.88;;;2.03;;
52618;SDS011;38513;53.234;6.568;2023-04-25T07:43:26;13.18;;;2.47;;
52618;SDS011;38513;53.234;6.568;2023-04-25T07:45:52;13.77;;;2.10;;
52618;SDS011;38513;53.234;6.568;2023-04-25T07:48:18;9.48;;;1.95;;
52618;SDS011;38513;53.234;6.568;2023-04-25T07:50:44;11.65;;;2.20;;
52618;SDS011;38513;53.234;6.568;2023-04-25T07:53:11;8.73;;;1.80;;
52618;SDS011;38513;53.234;6.568;2023-04-25T07:55:40;10.18;;;2.00;;
52618;SDS011;38513;53.234;6.568;2023-04-25T07:58:09;8.73;;;1.95;;
52618;SDS011;38513;53.234;6.568;2023-04-25T08:00:35;10.75;;;2.08;;
52618;SDS011;38513;53.234;6.568;2023-04-25T08:03:02;8.52;;;1.63;;
52618;SDS011;38513;53.234;6.568;2023-04-25T08:05:30;9.23;;;1.95;;
52618;SDS011;38513;53.234;6.568;2023-04-25T08:07:57;9.50;;;1.67;;
52618;SDS011;38513;53.234;6.568;2023-04-25T08:10:28;7.90;;;1.30;;
52618;SDS011;38513;53.234;6.568;2023-04-25T08:12:55;8.32;;;1.48;;
52618;SDS011;38513;53.234;6.568;2023-04-25T08:15:21;8.80;;;1.63;;
52618;SDS011;38513;53.234;6.568;2023-04-25T08:17:47;7.50;;;1.30;;
52618;SDS011;38513;53.234;6.568;2023-04-25T08:20:13;7.70;;;1.20;;
52618;SDS011;38513;53.234;6.568;2023-04-25T08:22:39;7.03;;;1.23;;
52618;SDS011;38513;53.234;6.568;2023-04-25T08:25:06;6.35;;;1.20;;
52618;SDS011;38513;53.234;6.568;2023-04-25T08:27:32;7.68;;;1.33;;
52618;SDS011;38513;53.234;6.568;2023-04-25T08:29:58;7.17;;;1.40;;
52618;SDS011;38513;53.234;6.568;2023-04-25T08:32:24;7.63;;;1.30;;
52618;SDS011;38513;53.234;6.568;2023-04-25T08:34:50;5.35;;;1.20;;
52618;SDS011;38513;53.234;6.568;2023-04-25T08:37:19;6.13;;;1.10;;
52618;SDS011;38513;53.234;6.568;2023-04-25T08:39:45;5.93;;;1.17;;
52618;SDS011;38513;53.234;6.568;2023-04-25T08:42:13;7.63;;;1.30;;
52618;SDS011;38513;53.234;6.568;2023-04-25T08:44:40;6.90;;;1.25;;
52618;SDS011;38513;53.234;6.568;2023-04-25T08:47:06;7.13;;;1.40;;
52618;SDS011;38513;53.234;6.568;2023-04-25T08:49:33;7.60;;;1.27;;
52618;SDS011;38513;53.234;6.568;2023-04-25T08:52:00;7.78;;;1.50;;
52618;SDS011;38513;53.234;6.568;2023-04-25T08:54:29;9.68;;;1.95;;
52618;SDS011;38513;53.234;6.568;2023-04-25T08:56:56;7.20;;;1.55;;
52618;SDS011;38513;53.234;6.568;2023-04-25T08:59:26;7.85;;;1.60;;
52618;SDS011;38513;53.234;6.568;2023-04-25T09:01:53;8.88;;;1.60;;
52618;SDS011;38513;53.234;6.568;2023-04-25T09:04:19;9.30;;;2.45;;
52618;SDS011;38513;53.234;6.568;2023-04-25T09:06:46;10.73;;;2.33;;
52618;SDS011;38513;53.234;6.568;2023-04-25T09:09:15;9.77;;;1.98;;
52618;SDS011;38513;53.234;6.568;2023-04-25T09:11:42;11.23;;;2.05;;
52618;SDS011;38513;53.234;6.568;2023-04-25T09:14:15;9.80;;;2.10;;
52618;SDS011;38513;53.234;6.568;2023-04-25T09:19:30;10.57;;;2.00;;
52618;SDS011;38513;53.234;6.568;2023-04-25T09:21:59;9.93;;;1.85;;
52618;SDS011;38513;53.234;6.568;2023-04-25T09:24:29;10.27;;;2.30;;
52618;SDS011;38513;53.234;6.568;2023-04-25T09:26:56;13.32;;;2.38;;
52618;SDS011;38513;53.234;6.568;2023-04-25T09:29:29;13.85;;;2.75;;
52618;SDS011;38513;53.234;6.568;2023-04-25T09:34:42;12.05;;;2.70;;
52618;SDS011;38513;53.234;6.568;2023-04-25T09:37:09;15.23;;;2.72;;
52618;SDS011;38513;53.234;6.568;2023-04-25T09:39:38;11.23;;;2.38;;
52618;SDS011;38513;53.234;6.568;2023-04-25T09:42:05;14.32;;;2.10;;
52618;SDS011;38513;53.234;6.568;2023-04-25T09:44:31;10.23;;;1.90;;
52618;SDS011;38513;53.234;6.568;2023-04-25T09:46:57;12.15;;;1.90;;
52618;SDS011;38513;53.234;6.568;2023-04-25T09:49:27;10.82;;;2.03;;
52618;SDS011;38513;53.234;6.568;2023-04-25T09:51:56;11.30;;;2.00;;
52618;SDS011;38513;53.234;6.568;2023-04-25T09:54:26;10.15;;;2.33;;
52618;SDS011;38513;53.234;6.568;2023-04-25T09:56:52;12.95;;;2.10;;
52618;SDS011;38513;53.234;6.568;2023-04-25T09:59:21;12.20;;;2.17;;
52618;SDS011;38513;53.234;6.568;2023-04-25T10:01:51;10.80;;;2.55;;
52618;SDS011;38513;53.234;6.568;2023-04-25T10:04:19;10.80;;;2.53;;
52618;SDS011;38513;53.234;6.568;2023-04-25T10:06:46;12.80;;;2.65;;
52618;SDS011;38513;53.234;6.568;2023-04-25T10:09:14;13.18;;;2.35;;
52618;SDS011;38513;53.234;6.568;2023-04-25T10:11:40;11.70;;;2.63;;
52618;SDS011;38513;53.234;6.568;2023-04-25T10:14:07;8.27;;;1.98;;
52618;SDS011;38513;53.234;6.568;2023-04-25T10:16:33;10.63;;;2.08;;
52618;SDS011;38513;53.234;6.568;2023-04-25T10:19:02;11.43;;;2.20;;
52618;SDS011;38513;53.234;6.568;2023-04-25T10:21:28;9.65;;;1.90;;
52618;SDS011;38513;53.234;6.568;2023-04-25T10:23:57;10.07;;;2.20;;
52618;SDS011;38513;53.234;6.568;2023-04-25T10:26:26;8.68;;;2.03;;
52618;SDS011;38513;53.234;6.568;2023-04-25T10:29:00;9.98;;;2.00;;
52618;SDS011;38513;53.234;6.568;2023-04-25T10:31:26;10.75;;;2.03;;
52618;SDS011;38513;53.234;6.568;2023-04-25T10:33:53;11.10;;;2.50;;
52618;SDS011;38513;53.234;6.568;2023-04-25T10:36:21;11.32;;;2.40;;
52618;SDS011;38513;53.234;6.568;2023-04-25T10:38:51;10.40;;;2.22;;
52618;SDS011;38513;53.234;6.568;2023-04-25T10:41:18;11.13;;;2.42;;
52618;SDS011;38513;53.234;6.568;2023-04-25T10:43:46;11.25;;;2.47;;
52618;SDS011;38513;53.234;6.568;2023-04-25T10:48:49;10.48;;;2.28;;
52618;SDS011;38513;53.234;6.568;2023-04-25T10:51:28;11.38;;;2.30;;
52618;SDS011;38513;53.234;6.568;2023-04-25T10:54:02;9.60;;;1.80;;
52618;SDS011;38513;53.234;6.568;2023-04-25T10:56:30;11.03;;;2.30;;
52618;SDS011;38513;53.234;6.568;2023-04-25T10:59:13;9.45;;;2.08;;
52618;SDS011;38513;53.234;6.568;2023-04-25T11:01:40;11.32;;;2.05;;
52618;SDS011;38513;53.234;6.568;2023-04-25T11:04:18;10.43;;;2.17;;
52618;SDS011;38513;53.234;6.568;2023-04-25T11:06:55;10.75;;;2.40;;
52618;SDS011;38513;53.234;6.568;2023-04-25T11:09:24;12.07;;;2.08;;
52618;SDS011;38513;53.234;6.568;2023-04-25T11:11:54;10.20;;;1.87;;
52618;SDS011;38513;53.234;6.568;2023-04-25T11:14:20;9.88;;;1.80;;
52618;SDS011;38513;53.234;6.568;2023-04-25T11:16:47;7.90;;;1.70;;
52618;SDS011;38513;53.234;6.568;2023-04-25T11:19:13;9.50;;;1.70;;
52618;SDS011;38513;53.234;6.568;2023-04-25T11:21:39;8.45;;;1.55;;
52618;SDS011;38513;53.234;6.568;2023-04-25T11:24:05;9.43;;;1.98;;
52618;SDS011;38513;53.234;6.568;2023-04-25T11:26:31;8.10;;;1.90;;
52618;SDS011;38513;53.234;6.568;2023-04-25T11:28:58;10.23;;;2.00;;
52618;SDS011;38513;53.234;6.568;2023-04-25T11:31:25;9.82;;;2.10;;
52618;SDS011;38513;53.234;6.568;2023-04-25T11:33:53;9.63;;;2.13;;
52618;SDS011;38513;53.234;6.568;2023-04-25T11:36:22;9.25;;;2.05;;
52618;SDS011;38513;53.234;6.568;2023-04-25T11:38:52;11.00;;;2.28;;
52618;SDS011;38513;53.234;6.568;2023-04-25T11:41:21;9.18;;;1.70;;
52618;SDS011;38513;53.234;6.568;2023-04-25T11:43:48;10.88;;;2.35;;
52618;SDS011;38513;53.234;6.568;2023-04-25T11:46:16;12.23;;;2.30;;
52618;SDS011;38513;53.234;6.568;2023-04-25T11:48:45;9.10;;;2.10;;
52618;SDS011;38513;53.234;6.568;2023-04-25T11:51:11;9.10;;;1.52;;
52618;SDS011;38513;53.234;6.568;2023-04-25T11:53:40;8.27;;;1.83;;
52618;SDS011;38513;53.234;6.568;2023-04-25T11:56:10;11.60;;;2.00;;
52618;SDS011;38513;53.234;6.568;2023-04-25T11:58:58;8.68;;;1.60;;
52618;SDS011;38513;53.234;6.568;2023-04-25T12:03:52;11.68;;;1.90;;
52618;SDS011;38513;53.234;6.568;2023-04-25T12:06:19;10.85;;;2.10;;
52618;SDS011;38513;53.234;6.568;2023-04-25T12:09:01;10.90;;;2.00;;
52618;SDS011;38513;53.234;6.568;2023-04-25T12:11:29;12.15;;;2.35;;
52618;SDS011;38513;53.234;6.568;2023-04-25T12:13:56;14.45;;;2.33;;
52618;SDS011;38513;53.234;6.568;2023-04-25T12:16:22;12.68;;;2.05;;
52618;SDS011;38513;53.234;6.568;2023-04-25T12:18:51;9.23;;;1.63;;
52618;SDS011;38513;53.234;6.568;2023-04-25T12:21:21;9.20;;;1.75;;
52618;SDS011;38513;53.234;6.568;2023-04-25T12:23:47;9.85;;;2.05;;
52618;SDS011;38513;53.234;6.568;2023-04-25T12:26:13;8.82;;;1.70;;
52618;SDS011;38513;53.234;6.568;2023-04-25T12:28:44;9.98;;;2.08;;
52618;SDS011;38513;53.234;6.568;2023-04-25T12:31:12;10.18;;;2.20;;
52618;SDS011;38513;53.234;6.568;2023-04-25T12:33:40;11.68;;;2.28;;
52618;SDS011;38513;53.234;6.568;2023-04-25T12:36:09;10.90;;;2.33;;
52618;SDS011;38513;53.234;6.568;2023-04-25T12:38:40;11.27;;;1.90;;
52618;SDS011;38513;53.234;6.568;2023-04-25T12:41:06;14.07;;;2.30;;
52618;SDS011;38513;53.234;6.568;2023-04-25T12:43:33;9.35;;;1.92;;
52618;SDS011;38513;53.234;6.568;2023-04-25T12:46:02;11.50;;;2.30;;
52618;SDS011;38513;53.234;6.568;2023-04-25T12:48:28;9.95;;;1.92;;
52618;SDS011;38513;53.234;6.568;2023-04-25T12:50:55;11.00;;;2.10;;
52618;SDS011;38513;53.234;6.568;2023-04-25T12:53:21;9.03;;;1.70;;
52618;SDS011;38513;53.234;6.568;2023-04-25T12:55:49;10.55;;;2.20;;
52618;SDS011;38513;53.234;6.568;2023-04-25T12:58:16;9.15;;;2.00;;
52618;SDS011;38513;53.234;6.568;2023-04-25T13:00:43;9.95;;;1.88;;
52618;SDS011;38513;53.234;6.568;2023-04-25T13:03:09;12.40;;;2.13;;
52618;SDS011;38513;53.234;6.568;2023-04-25T13:05:38;9.98;;;2.00;;
52618;SDS011;38513;53.234;6.568;2023-04-25T13:08:04;9.48;;;1.98;;
52618;SDS011;38513;53.234;6.568;2023-04-25T13:10:31;9.63;;;1.80;;
52618;SDS011;38513;53.234;6.568;2023-04-25T13:12:58;8.95;;;2.00;;
52618;SDS011;38513;53.234;6.568;2023-04-25T13:15:26;8.15;;;2.00;;
52618;SDS011;38513;53.234;6.568;2023-04-25T13:17:52;11.15;;;2.22;;
52618;SDS011;38513;53.234;6.568;2023-04-25T13:20:19;11.80;;;2.10;;
52618;SDS011;38513;53.234;6.568;2023-04-25T13:22:47;10.60;;;2.30;;
52618;SDS011;38513;53.234;6.568;2023-04-25T13:25:13;10.07;;;2.30;;
52618;SDS011;38513;53.234;6.568;2023-04-25T13:27:40;9.63;;;1.70;;
52618;SDS011;38513;53.234;6.568;2023-04-25T13:30:06;10.52;;;2.03;;
52618;SDS011;38513;53.234;6.568;2023-04-25T13:32:36;10.75;;;2.15;;
52618;SDS011;38513;53.234;6.568;2023-04-25T13:35:04;11.98;;;2.35;;
52618;SDS011;38513;53.234;6.568;2023-04-25T13:37:30;9.20;;;2.38;;
52618;SDS011;38513;53.234;6.568;2023-04-25T13:40:01;11.23;;;2.38;;
52618;SDS011;38513;53.234;6.568;2023-04-25T13:42:32;13.57;;;2.40;;
52618;SDS011;38513;53.234;6.568;2023-04-25T13:44:59;13.32;;;2.45;;
52618;SDS011;38513;53.234;6.568;2023-04-25T13:47:28;11.68;;;2.53;;
52618;SDS011;38513;53.234;6.568;2023-04-25T13:49:55;8.65;;;1.80;;
52618;SDS011;38513;53.234;6.568;2023-04-25T13:52:21;8.02;;;1.40;;
52618;SDS011;38513;53.234;6.568;2023-04-25T13:54:49;9.15;;;1.52;;
52618;SDS011;38513;53.234;6.568;2023-04-25T13:57:16;10.00;;;1.80;;
52618;SDS011;38513;53.234;6.568;2023-04-25T13:59:42;8.98;;;2.33;;
52618;SDS011;38513;53.234;6.568;2023-04-25T14:02:08;10.00;;;2.00;;
52618;SDS011;38513;53.234;6.568;2023-04-25T14:04:34;12.88;;;2.15;;
52618;SDS011;38513;53.234;6.568;2023-04-25T14:07:00;11.07;;;2.17;;
52618;SDS011;38513;53.234;6.568;2023-04-25T14:09:27;11.00;;;2.17;;
52618;SDS011;38513;53.234;6.568;2023-04-25T14:11:56;9.87;;;2.03;;
52618;SDS011;38513;53.234;6.568;2023-04-25T14:14:23;13.35;;;2.55;;
52618;SDS011;38513;53.234;6.568;2023-04-25T14:16:53;9.25;;;1.80;;
52618;SDS011;38513;53.234;6.568;2023-04-25T14:19:19;8.95;;;1.40;;
52618;SDS011;38513;53.234;6.568;2023-04-25T14:21:46;9.60;;;1.95;;
52618;SDS011;38513;53.234;6.568;2023-04-25T14:24:13;8.95;;;1.58;;
52618;SDS011;38513;53.234;6.568;2023-04-25T14:26:39;9.20;;;1.60;;
52618;SDS011;38513;53.234;6.568;2023-04-25T14:29:05;10.15;;;1.90;;
52618;SDS011;38513;53.234;6.568;2023-04-25T14:31:32;8.18;;;1.60;;
52618;SDS011;38513;53.234;6.568;2023-04-25T14:33:59;10.07;;;1.88;;
52618;SDS011;38513;53.234;6.568;2023-04-25T14:36:26;10.85;;;1.95;;
52618;SDS011;38513;53.234;6.568;2023-04-25T14:38:52;8.55;;;2.15;;
52618;SDS011;38513;53.234;6.568;2023-04-25T14:41:19;9.07;;;2.15;;
52618;SDS011;38513;53.234;6.568;2023-04-25T14:43:45;15.75;;;2.35;;
52618;SDS011;38513;53.234;6.568;2023-04-25T14:46:11;10.05;;;1.80;;
52618;SDS011;38513;53.234;6.568;2023-04-25T14:48:37;8.73;;;1.70;;